createdAt,value
2018-04-18T00:00:59.140Z,14.23
2018-04-18T00:01:58.780Z,14.3
2018-04-18T00:02:59.033Z,14.3
2018-04-18T00:03:59.051Z,14.25
2018-04-18T00:04:59.029Z,14.23
2018-04-18T00:05:59.031Z,14.22
2018-04-18T00:06:59.043Z,14.18
2018-04-18T00:07:59.035Z,14.17
2018-04-18T00:08:59.032Z,14.2
2018-04-18T00:09:59.020Z,14.18
2018-04-18T00:10:59.025Z,14.17
2018-04-18T00:11:59.019Z,14.22
2018-04-18T00:12:59.035Z,14.18
2018-04-18T00:13:59.025Z,14.2
2018-04-18T00:14:59.073Z,14.1
2018-04-18T00:15:59.021Z,14.14
2018-04-18T00:16:59.018Z,14.04
2018-04-18T00:17:59.061Z,14.11
2018-04-18T00:18:59.022Z,14.08
2018-04-18T00:19:58.758Z,13.99
2018-04-18T00:20:59.012Z,14.08
2018-04-18T00:21:58.754Z,14.11
2018-04-18T00:22:59.097Z,14.1
2018-04-18T00:23:59.014Z,14.14
2018-04-18T00:24:59.028Z,14.14
2018-04-18T00:25:59.007Z,14.11
2018-04-18T00:26:59.048Z,14.11
2018-04-18T00:27:59.000Z,14.11
2018-04-18T00:28:58.744Z,14.17
2018-04-18T00:29:59.291Z,14.12
2018-04-18T00:30:58.997Z,14.12
2018-04-18T00:31:59.008Z,14.12
2018-04-18T00:32:59.000Z,14.08
2018-04-18T00:33:58.732Z,14.1
2018-04-18T00:34:58.796Z,14.1
2018-04-18T00:35:58.980Z,14.08
2018-04-18T00:36:58.997Z,14.12
2018-04-18T00:37:58.980Z,14.12
2018-04-18T00:38:58.722Z,14.22
2018-04-18T00:39:58.717Z,14.22
2018-04-18T00:40:58.979Z,14.12
2018-04-18T00:41:58.976Z,14.12
2018-04-18T00:42:58.994Z,14.23
2018-04-18T00:43:58.979Z,14.22
2018-04-18T00:44:59.278Z,14.14
2018-04-18T00:45:58.977Z,14.23
2018-04-18T00:46:58.975Z,14.1
2018-04-18T00:47:58.451Z,14.18
2018-04-18T00:48:58.701Z,14.1
2018-04-18T00:49:58.706Z,14.22
2018-04-18T00:50:58.956Z,14.14
2018-04-18T00:51:58.699Z,14.12
2018-04-18T00:52:58.694Z,14.12
2018-04-18T00:53:58.960Z,14.1
2018-04-18T00:54:58.959Z,14.07
2018-04-18T00:55:58.692Z,14.1
2018-04-18T00:56:58.435Z,14.17
2018-04-18T00:57:58.978Z,14.1
2018-04-18T00:58:58.447Z,14.07
2018-04-18T01:00:00.844Z,14.07
2018-04-18T01:00:58.942Z,13.95
2018-04-18T01:01:58.938Z,13.99
2018-04-18T01:02:58.948Z,14
2018-04-18T01:03:58.931Z,13.93
2018-04-18T01:04:58.929Z,13.99
2018-04-18T01:05:58.928Z,13.9
2018-04-18T01:06:58.944Z,13.97
2018-04-18T01:07:58.960Z,13.9
2018-04-18T01:08:59.001Z,13.89
2018-04-18T01:09:58.666Z,13.95
2018-04-18T01:10:58.950Z,13.89
2018-04-18T01:11:58.943Z,13.9
2018-04-18T01:12:58.939Z,13.93
2018-04-18T01:13:58.930Z,13.89
2018-04-18T01:14:58.924Z,13.89
2018-04-18T01:15:58.656Z,13.92
2018-04-18T01:16:58.657Z,13.89
2018-04-18T01:17:58.945Z,13.9
2018-04-18T01:18:58.929Z,13.89
2018-04-18T01:19:58.665Z,13.86
2018-04-18T01:20:58.648Z,13.85
2018-04-18T01:21:58.909Z,13.83
2018-04-18T01:22:58.910Z,13.87
2018-04-18T01:23:58.894Z,13.92
2018-04-18T01:24:58.896Z,13.87
2018-04-18T01:25:58.903Z,13.89
2018-04-18T01:26:58.885Z,13.78
2018-04-18T01:27:58.906Z,13.81
2018-04-18T01:28:58.906Z,13.81
2018-04-18T01:29:58.628Z,13.77
2018-04-18T01:30:58.627Z,13.78
2018-04-18T01:31:58.625Z,13.7
2018-04-18T01:32:58.900Z,13.71
2018-04-18T01:33:58.892Z,13.68
2018-04-18T01:34:58.892Z,13.6
2018-04-18T01:35:58.879Z,13.57
2018-04-18T01:36:58.898Z,13.6
2018-04-18T01:37:58.635Z,13.46
2018-04-18T01:38:58.637Z,13.5
2018-04-18T01:39:58.889Z,13.52
2018-04-18T01:40:58.623Z,13.52
2018-04-18T01:41:58.870Z,13.5
2018-04-18T01:42:58.600Z,13.5
2018-04-18T01:43:58.858Z,13.5
2018-04-18T01:44:58.605Z,13.46
2018-04-18T01:46:00.495Z,13.49
2018-04-18T01:46:58.608Z,13.41
2018-04-18T01:47:58.847Z,13.46
2018-04-18T01:48:58.832Z,13.44
2018-04-18T01:49:58.339Z,13.41
2018-04-18T01:50:58.614Z,13.41
2018-04-18T01:51:58.831Z,13.44
2018-04-18T01:52:58.830Z,13.37
2018-04-18T01:53:58.579Z,13.42
2018-04-18T01:54:58.839Z,13.35
2018-04-18T01:55:58.857Z,13.35
2018-04-18T01:56:58.833Z,13.33
2018-04-18T01:57:58.833Z,13.25
2018-04-18T01:58:58.829Z,13.2
2018-04-18T01:59:58.833Z,13.05
2018-04-18T02:00:58.878Z,13.09
2018-04-18T02:01:58.611Z,12.98
2018-04-18T02:02:58.856Z,13.04
2018-04-18T02:03:58.576Z,13.04
2018-04-18T02:04:58.555Z,13.04
2018-04-18T02:05:58.803Z,13.09
2018-04-18T02:06:58.303Z,12.98
2018-04-18T02:07:58.808Z,13
2018-04-18T02:08:58.551Z,12.95
2018-04-18T02:09:58.550Z,12.95
2018-04-18T02:10:58.792Z,12.95
2018-04-18T02:11:58.791Z,12.82
2018-04-18T02:12:58.785Z,12.9
2018-04-18T02:13:58.811Z,12.86
2018-04-18T02:14:58.797Z,12.79
2018-04-18T02:15:58.832Z,12.83
2018-04-18T02:16:58.785Z,12.83
2018-04-18T02:17:58.778Z,12.82
2018-04-18T02:18:58.524Z,12.83
2018-04-18T02:19:58.772Z,12.83
2018-04-18T02:20:58.764Z,12.79
2018-04-18T02:21:58.764Z,12.72
2018-04-18T02:22:58.282Z,12.64
2018-04-18T02:23:58.507Z,12.64
2018-04-18T02:24:58.504Z,12.61
2018-04-18T02:25:58.763Z,12.64
2018-04-18T02:26:58.758Z,12.62
2018-04-18T02:27:58.748Z,12.54
2018-04-18T02:28:58.755Z,12.54
2018-04-18T02:29:58.516Z,12.47
2018-04-18T02:31:00.403Z,12.58
2018-04-18T02:31:58.752Z,12.49
2018-04-18T02:32:58.737Z,12.47
2018-04-18T02:33:58.498Z,12.49
2018-04-18T02:34:58.488Z,12.49
2018-04-18T02:35:58.735Z,12.45
2018-04-18T02:36:58.732Z,12.36
2018-04-18T02:37:58.729Z,12.4
2018-04-18T02:38:58.723Z,12.36
2018-04-18T02:39:58.470Z,12.4
2018-04-18T02:40:58.468Z,12.37
2018-04-18T02:41:58.470Z,12.36
2018-04-18T02:42:58.720Z,12.32
2018-04-18T02:43:58.707Z,12.21
2018-04-18T02:44:58.708Z,12.35
2018-04-18T02:45:58.455Z,12.35
2018-04-18T02:46:58.705Z,12.39
2018-04-18T02:47:58.463Z,12.31
2018-04-18T02:48:58.452Z,12.36
2018-04-18T02:49:58.704Z,12.22
2018-04-18T02:50:58.690Z,12.22
2018-04-18T02:51:58.194Z,12.22
2018-04-18T02:52:58.441Z,12.22
2018-04-18T02:53:58.691Z,12.24
2018-04-18T02:54:58.683Z,12.13
2018-04-18T02:55:58.681Z,12.18
2018-04-18T02:56:58.678Z,12.15
2018-04-18T02:57:58.174Z,12.22
2018-04-18T02:58:58.671Z,12.18
2018-04-18T02:59:58.691Z,12.2
2018-04-18T03:00:58.685Z,12.18
2018-04-18T03:01:58.661Z,12.15
2018-04-18T03:02:58.411Z,12.1
2018-04-18T03:03:58.406Z,12.12
2018-04-18T03:04:58.402Z,12.04
2018-04-18T03:05:58.418Z,12.03
2018-04-18T03:06:58.395Z,12.07
2018-04-18T03:07:58.393Z,12
2018-04-18T03:08:58.391Z,11.95
2018-04-18T03:09:58.396Z,12.03
2018-04-18T03:10:58.656Z,11.91
2018-04-18T03:11:58.638Z,11.94
2018-04-18T03:12:58.396Z,11.91
2018-04-18T03:13:58.630Z,11.87
2018-04-18T03:14:58.641Z,11.94
2018-04-18T03:15:58.621Z,11.91
2018-04-18T03:16:58.649Z,11.87
2018-04-18T03:17:58.618Z,11.88
2018-04-18T03:18:58.367Z,11.91
2018-04-18T03:19:58.361Z,11.86
2018-04-18T03:20:58.619Z,11.84
2018-04-18T03:21:58.368Z,11.86
2018-04-18T03:22:58.614Z,11.84
2018-04-18T03:23:58.351Z,11.81
2018-04-18T03:24:58.385Z,11.8
2018-04-18T03:25:58.602Z,11.81
2018-04-18T03:26:58.344Z,11.78
2018-04-18T03:27:58.595Z,11.8
2018-04-18T03:28:58.346Z,11.8
2018-04-18T03:37:39.460Z,11.73
2018-04-18T03:38:21.519Z,11.77
2018-04-18T03:39:21.515Z,11.7
2018-04-18T03:40:21.516Z,11.73
2018-04-18T03:41:21.254Z,11.69
2018-04-18T03:42:21.501Z,11.68
2018-04-18T03:43:20.996Z,11.68
2018-04-18T03:44:21.248Z,11.7
2018-04-18T03:45:21.318Z,11.7
2018-04-18T03:46:21.236Z,11.72
2018-04-18T03:47:21.229Z,11.62
2018-04-18T03:48:21.232Z,11.59
2018-04-18T03:49:21.254Z,11.62
2018-04-18T03:50:21.290Z,11.59
2018-04-18T03:51:21.230Z,11.6
2018-04-18T03:52:21.223Z,11.7
2018-04-18T03:53:21.560Z,11.7
2018-04-18T03:54:21.214Z,11.73
2018-04-18T03:55:21.471Z,11.78
2018-04-18T03:56:21.223Z,11.72
2018-04-18T03:57:21.209Z,11.7
2018-04-18T03:58:21.208Z,11.78
2018-04-18T03:59:21.488Z,11.8
2018-04-18T04:00:21.491Z,11.69
2018-04-18T04:01:20.946Z,11.78
2018-04-18T04:02:21.209Z,11.68
2018-04-18T04:03:21.186Z,11.8
2018-04-18T04:04:21.430Z,11.69
2018-04-18T04:05:21.250Z,11.7
2018-04-18T04:06:21.180Z,11.66
2018-04-18T04:07:21.428Z,11.62
2018-04-18T04:08:23.281Z,11.54
2018-04-18T04:09:20.930Z,11.54
2018-04-18T04:10:21.189Z,11.57
2018-04-18T04:11:21.409Z,11.57
2018-04-18T04:12:20.930Z,11.57
2018-04-18T04:13:21.401Z,11.59
2018-04-18T04:14:21.404Z,11.55
2018-04-18T04:15:21.455Z,11.68
2018-04-18T04:16:21.405Z,11.62
2018-04-18T04:17:21.397Z,11.59
2018-04-18T04:18:21.535Z,11.6
2018-04-18T04:19:21.391Z,11.57
2018-04-18T04:20:21.438Z,11.65
2018-04-18T04:21:20.895Z,11.72
2018-04-18T04:22:21.130Z,11.73
2018-04-18T04:23:21.622Z,11.72
2018-04-18T04:24:21.374Z,11.8
2018-04-18T04:25:20.921Z,11.97
2018-04-18T04:26:21.132Z,11.94
2018-04-18T04:27:21.362Z,11.94
2018-04-18T04:28:21.105Z,12
2018-04-18T04:29:21.355Z,12.04
2018-04-18T04:30:21.150Z,11.91
2018-04-18T04:31:21.345Z,11.84
2018-04-18T04:32:21.097Z,11.84
2018-04-18T04:33:21.340Z,11.84
2018-04-18T04:34:21.082Z,11.9
2018-04-18T04:35:21.165Z,11.95
2018-04-18T04:36:21.337Z,11.99
2018-04-18T04:37:21.080Z,12
2018-04-18T04:38:23.247Z,11.91
2018-04-18T04:39:21.073Z,11.84
2018-04-18T04:40:21.369Z,11.84
2018-04-18T04:41:21.316Z,11.88
2018-04-18T04:42:20.845Z,11.9
2018-04-18T04:43:21.313Z,11.87
2018-04-18T04:44:21.309Z,11.94
2018-04-18T04:45:21.107Z,11.97
2018-04-18T04:46:21.300Z,12.09
2018-04-18T04:47:21.055Z,12.06
2018-04-18T04:48:21.296Z,12.07
2018-04-18T04:49:21.050Z,12.13
2018-04-18T04:50:21.346Z,12.13
2018-04-18T04:51:21.033Z,11.94
2018-04-18T04:52:21.032Z,12
2018-04-18T04:53:22.131Z,11.84
2018-04-18T04:54:21.273Z,11.88
2018-04-18T04:55:21.298Z,11.99
2018-04-18T04:56:21.274Z,12.17
2018-04-18T04:57:21.011Z,12.15
2018-04-18T04:58:21.018Z,12.35
2018-04-18T04:59:21.015Z,12.37
2018-04-18T05:00:21.046Z,12.57
2018-04-18T05:01:21.260Z,12.82
2018-04-18T05:02:21.264Z,13.01
2018-04-18T05:03:21.251Z,13.23
2018-04-18T05:04:20.997Z,13.47
2018-04-18T05:05:21.304Z,13.7
2018-04-18T05:06:21.243Z,13.72
2018-04-18T05:07:21.247Z,13.81
2018-04-18T05:08:21.240Z,13.7
2018-04-18T05:09:20.983Z,13.77
2018-04-18T05:10:21.491Z,13.89
2018-04-18T05:11:21.256Z,13.92
2018-04-18T05:12:20.995Z,14
2018-04-18T05:13:20.993Z,14.1
2018-04-18T05:14:21.231Z,14.08
2018-04-18T05:15:21.007Z,14
2018-04-18T05:16:20.975Z,13.93
2018-04-18T05:17:20.982Z,13.9
2018-04-18T05:18:21.227Z,13.71
2018-04-18T05:19:20.992Z,13.62
2018-04-18T05:20:20.979Z,13.56
2018-04-18T05:21:20.982Z,13.54
2018-04-18T05:22:20.983Z,13.46
2018-04-18T05:23:20.976Z,13.47
2018-04-18T05:24:21.021Z,13.52
2018-04-18T05:25:21.313Z,13.54
2018-04-18T05:26:20.734Z,13.49
2018-04-18T05:27:21.252Z,13.52
2018-04-18T05:28:21.214Z,13.47
2018-04-18T05:29:21.216Z,13.52
2018-04-18T05:30:21.304Z,13.57
2018-04-18T05:31:21.219Z,13.74
2018-04-18T05:32:20.969Z,13.78
2018-04-18T05:33:21.212Z,13.87
2018-04-18T05:34:21.215Z,14.14
2018-04-18T05:35:20.985Z,14.33
2018-04-18T05:36:21.212Z,14.54
2018-04-18T05:37:21.392Z,14.84
2018-04-18T05:38:21.235Z,14.99
2018-04-18T05:39:22.507Z,15.19
2018-04-18T05:40:21.080Z,15.49
2018-04-18T05:41:21.214Z,15.64
2018-04-18T05:42:21.200Z,15.98
2018-04-18T05:43:21.212Z,16.29
2018-04-18T05:44:20.973Z,16.51
2018-04-18T05:45:20.737Z,16.74
2018-04-18T05:46:20.705Z,16.86
2018-04-18T05:47:21.219Z,16.94
2018-04-18T05:48:21.216Z,17.11
2018-04-18T05:49:21.248Z,17.23
2018-04-18T05:50:21.241Z,17.38
2018-04-18T05:51:21.224Z,17.64
2018-04-18T05:52:21.221Z,17.76
2018-04-18T05:53:21.218Z,17.79
2018-04-18T05:54:21.486Z,18.04
2018-04-18T05:55:20.800Z,18.04
2018-04-18T05:56:21.229Z,18.03
2018-04-18T05:57:21.226Z,18.05
2018-04-18T05:58:20.981Z,17.79
2018-04-18T05:59:20.987Z,17.59
2018-04-18T06:00:21.004Z,17.11
2018-04-18T06:01:20.733Z,16.81
2018-04-18T06:02:21.284Z,16.47
2018-04-18T06:03:21.247Z,16.17
2018-04-18T06:04:21.246Z,15.86
2018-04-18T06:05:21.260Z,15.61
2018-04-18T06:06:21.441Z,15.54
2018-04-18T06:07:20.999Z,15.35
2018-04-18T06:08:21.243Z,15.25
2018-04-18T06:09:21.544Z,15.21
2018-04-18T06:10:20.829Z,14.94
2018-04-18T06:11:21.084Z,14.89
2018-04-18T06:12:21.001Z,14.79
2018-04-18T06:13:21.001Z,14.88
2018-04-18T06:22:51.007Z,16.75
2018-04-18T06:23:50.757Z,17.16
2018-04-18T06:24:50.994Z,17.6
2018-04-18T06:25:51.023Z,18.03
2018-04-18T06:26:50.998Z,18.43
2018-04-18T06:27:50.758Z,18.65
2018-04-18T06:28:50.770Z,19.09
2018-04-18T06:29:50.759Z,19.26
2018-04-18T06:30:50.762Z,19.34
2018-04-18T06:31:51.013Z,19.66
2018-04-18T06:32:50.759Z,19.76
2018-04-18T06:33:51.013Z,20.02
2018-04-18T06:34:51.009Z,20.21
2018-04-18T06:35:51.011Z,20.4
2018-04-18T06:36:51.019Z,20.69
2018-04-18T06:37:50.835Z,20.74
2018-04-18T06:38:51.030Z,20.88
2018-04-18T06:39:50.774Z,21.02
2018-04-18T06:40:51.083Z,21.15
2018-04-18T06:41:50.800Z,21.24
2018-04-18T06:42:51.927Z,21.36
2018-04-18T06:43:51.043Z,21.57
2018-04-18T06:44:51.046Z,21.57
2018-04-18T06:45:51.078Z,21.83
2018-04-18T06:46:50.800Z,22.04
2018-04-18T06:47:51.073Z,22.25
2018-04-18T06:48:50.831Z,22.3
2018-04-18T06:49:50.827Z,22.63
2018-04-18T06:50:51.087Z,22.8
2018-04-18T06:51:51.084Z,22.91
2018-04-18T06:52:51.090Z,22.98
2018-04-18T06:53:50.602Z,23.08
2018-04-18T06:54:50.843Z,23.21
2018-04-18T06:55:50.866Z,23.02
2018-04-18T06:56:51.135Z,22.96
2018-04-18T06:57:50.669Z,23.1
2018-04-18T06:58:50.871Z,23.25
2018-04-18T06:59:50.873Z,23.2
2018-04-18T07:00:51.136Z,23.25
2018-04-18T07:01:50.912Z,23.4
2018-04-18T07:02:51.141Z,23.41
2018-04-18T07:03:51.164Z,23.63
2018-04-18T07:04:51.151Z,23.74
2018-04-18T07:05:50.909Z,23.77
2018-04-18T07:06:50.917Z,23.8
2018-04-18T07:07:51.182Z,23.8
2018-04-18T07:08:50.923Z,23.87
2018-04-18T07:09:50.939Z,23.71
2018-04-18T07:10:50.688Z,23.66
2018-04-18T07:11:50.962Z,23.91
2018-04-18T07:12:53.152Z,24.17
2018-04-18T07:13:50.961Z,24.43
2018-04-18T07:14:51.215Z,24.43
2018-04-18T07:15:51.229Z,24.51
2018-04-18T07:16:51.234Z,24.78
2018-04-18T07:17:51.231Z,24.85
2018-04-18T07:18:50.992Z,24.86
2018-04-18T07:19:51.250Z,24.7
2018-04-18T07:20:51.272Z,24.33
2018-04-18T07:21:51.262Z,24.17
2018-04-18T07:22:51.039Z,23.71
2018-04-18T07:23:51.040Z,23.36
2018-04-18T07:24:51.032Z,22.81
2018-04-18T07:25:51.295Z,22.2
2018-04-18T07:26:51.292Z,21.66
2018-04-18T07:27:51.308Z,21.21
2018-04-18T07:28:51.055Z,20.78
2018-04-18T07:29:51.326Z,20.37
2018-04-18T07:30:51.086Z,20
2018-04-18T07:31:51.332Z,19.86
2018-04-18T07:32:51.333Z,19.44
2018-04-18T07:33:51.095Z,19.16
2018-04-18T07:34:51.338Z,19.07
2018-04-18T07:35:51.338Z,19.24
2018-04-18T07:36:51.350Z,19.81
2018-04-18T07:37:51.363Z,20.44
2018-04-18T07:38:51.103Z,20.74
2018-04-18T07:39:51.366Z,21.03
2018-04-18T07:40:51.367Z,21.24
2018-04-18T07:41:51.374Z,21.21
2018-04-18T07:42:51.117Z,21.07
2018-04-18T07:43:51.134Z,21.03
2018-04-18T07:44:51.125Z,21.15
2018-04-18T07:45:51.131Z,21.6
2018-04-18T07:46:50.886Z,22.04
2018-04-18T07:47:51.139Z,22.62
2018-04-18T07:48:51.403Z,23.31
2018-04-18T07:49:51.412Z,23.78
2018-04-18T07:50:51.403Z,24.1
2018-04-18T07:51:51.416Z,24.16
2018-04-18T07:52:51.169Z,24.5
2018-04-18T07:53:51.172Z,24.86
2018-04-18T07:54:51.199Z,24.96
2018-04-18T07:55:51.436Z,25.01
2018-04-18T07:56:51.193Z,25.01
2018-04-18T07:57:51.458Z,24.95
2018-04-18T07:58:51.251Z,24.99
2018-04-18T07:59:51.457Z,25.03
2018-04-18T08:00:51.210Z,24.93
2018-04-18T08:01:51.256Z,24.84
2018-04-18T08:02:51.471Z,24.95
2018-04-18T08:03:51.484Z,24.86
2018-04-18T08:04:51.237Z,24.57
2018-04-18T08:05:51.494Z,24.16
2018-04-18T08:06:51.502Z,24.02
2018-04-18T08:07:51.254Z,24.03
2018-04-18T08:08:51.515Z,23.99
2018-04-18T08:09:51.268Z,24.5
2018-04-18T08:10:51.537Z,24.53
2018-04-18T08:11:51.534Z,24.63
2018-04-18T08:12:51.541Z,24.47
2018-04-18T08:13:54.010Z,24.32
2018-04-18T08:14:51.557Z,24.6
2018-04-18T08:15:51.068Z,25.01
2018-04-18T08:16:51.575Z,25.55
2018-04-18T08:17:51.575Z,26.06
2018-04-18T08:18:51.604Z,26.58
2018-04-18T08:19:51.590Z,27.03
2018-04-18T08:20:51.596Z,27.27
2018-04-18T08:21:51.768Z,27.58
2018-04-18T08:22:51.618Z,27.82
2018-04-18T08:23:51.365Z,28.02
2018-04-18T08:24:51.624Z,28.37
2018-04-18T08:25:51.644Z,28.67
2018-04-18T08:26:51.133Z,28.78
2018-04-18T08:27:51.394Z,28.96
2018-04-18T08:28:51.698Z,28.91
2018-04-18T08:29:51.661Z,28.98
2018-04-18T08:30:51.412Z,28.84
2018-04-18T08:31:51.440Z,28.72
2018-04-18T08:32:51.684Z,28.23
2018-04-18T08:33:51.441Z,28.22
2018-04-18T08:34:51.709Z,28.04
2018-04-18T08:35:51.707Z,27.83
2018-04-18T08:36:51.763Z,27.29
2018-04-18T08:37:51.723Z,26.84
2018-04-18T08:38:51.733Z,26.45
2018-04-18T08:39:51.735Z,26.06
2018-04-18T08:40:51.805Z,25.62
2018-04-18T08:41:51.508Z,25.26
2018-04-18T08:42:51.765Z,24.88
2018-04-18T08:43:54.921Z,24.55
2018-04-18T08:44:51.781Z,24.33
2018-04-18T08:45:51.535Z,24.2
2018-04-18T08:46:51.299Z,24.01
2018-04-18T08:47:51.549Z,23.87
2018-04-18T08:48:51.365Z,23.77
2018-04-18T08:49:51.812Z,23.78
2018-04-18T08:50:51.815Z,23.69
2018-04-18T08:51:51.591Z,23.58
2018-04-18T08:52:51.592Z,23.4
2018-04-18T08:53:51.842Z,23.43
2018-04-18T08:54:51.863Z,23.43
2018-04-18T08:55:51.865Z,23.47
2018-04-18T08:56:51.866Z,23.34
2018-04-18T08:57:51.868Z,23.17
2018-04-18T08:58:51.868Z,23.09
2018-04-18T08:59:51.619Z,23.12
2018-04-18T09:00:51.876Z,23.15
2018-04-18T09:01:51.641Z,23.12
2018-04-18T09:02:51.642Z,23.27
2018-04-18T09:03:51.894Z,23.25
2018-04-18T09:04:51.646Z,23.25
2018-04-18T09:05:51.652Z,23.31
2018-04-18T09:06:51.911Z,23.2
2018-04-18T09:07:51.666Z,23.31
2018-04-18T09:08:51.920Z,23.47
2018-04-18T09:09:52.168Z,23.51
2018-04-18T09:10:51.679Z,23.41
2018-04-18T09:11:51.686Z,23.46
2018-04-18T09:12:51.690Z,23.25
2018-04-18T09:13:51.706Z,23.15
2018-04-18T09:14:51.701Z,23.08
2018-04-18T09:15:52.098Z,23.12
2018-04-18T09:16:51.967Z,23.1
2018-04-18T09:17:51.983Z,23.15
2018-04-18T09:18:51.723Z,23.1
2018-04-18T09:19:51.986Z,22.94
2018-04-18T09:20:51.983Z,22.99
2018-04-18T09:21:51.983Z,22.88
2018-04-18T09:22:51.997Z,22.85
2018-04-18T09:23:51.754Z,22.94
2018-04-18T09:24:51.746Z,23.09
2018-04-18T09:25:51.758Z,23.2
2018-04-18T09:26:51.756Z,23.39
2018-04-18T09:27:51.761Z,23.54
2018-04-18T09:28:51.808Z,23.62
2018-04-18T09:29:52.050Z,23.71
2018-04-18T09:30:51.783Z,23.78
2018-04-18T09:31:51.777Z,23.61
2018-04-18T09:32:51.794Z,23.44
2018-04-18T09:33:52.053Z,23.41
2018-04-18T09:34:51.802Z,23.43
2018-04-18T09:35:52.055Z,23.36
2018-04-18T09:36:51.802Z,23.5
2018-04-18T09:37:51.805Z,23.59
2018-04-18T09:38:52.059Z,23.76
2018-04-18T09:39:51.819Z,23.93
2018-04-18T09:40:51.852Z,24.02
2018-04-18T09:41:51.820Z,23.99
2018-04-18T09:42:52.100Z,23.93
2018-04-18T09:43:51.839Z,23.93
2018-04-18T09:44:51.591Z,23.81
2018-04-18T09:45:52.089Z,23.83
2018-04-18T09:46:51.867Z,23.86
2018-04-18T09:47:51.856Z,23.84
2018-04-18T09:48:51.863Z,23.84
2018-04-18T09:49:51.858Z,23.95
2018-04-18T09:50:52.124Z,24.02
2018-04-18T09:51:52.125Z,24.23
2018-04-18T09:52:51.884Z,24.24
2018-04-18T09:53:52.134Z,24.2
2018-04-18T09:54:51.650Z,24.05
2018-04-18T09:55:52.141Z,24.06
2018-04-18T09:56:51.890Z,24.11
2018-04-18T09:57:51.901Z,24.01
2018-04-18T09:58:51.911Z,24.13
2018-04-18T09:59:52.205Z,24.13
2018-04-18T10:00:52.161Z,24.28
2018-04-18T10:01:51.907Z,24.29
2018-04-18T10:02:51.927Z,24.29
2018-04-18T10:03:51.947Z,24.42
2018-04-18T10:04:52.173Z,24.51
2018-04-18T10:05:52.183Z,24.57
2018-04-18T10:06:51.934Z,24.7
2018-04-18T10:07:52.248Z,24.69
2018-04-18T10:08:52.196Z,24.73
2018-04-18T10:09:52.197Z,24.7
2018-04-18T10:10:52.212Z,24.74
2018-04-18T10:11:51.961Z,24.84
2018-04-18T10:12:52.220Z,24.78
2018-04-18T10:13:52.235Z,24.81
2018-04-18T10:14:55.496Z,24.84
2018-04-18T10:15:51.992Z,24.84
2018-04-18T10:16:52.241Z,24.85
2018-04-18T10:17:52.021Z,24.95
2018-04-18T10:18:52.247Z,24.95
2018-04-18T10:19:51.750Z,25.01
2018-04-18T10:20:52.252Z,25.04
2018-04-18T10:21:52.014Z,25.01
2018-04-18T10:52:35.962Z,25.08
2018-04-18T10:53:32.202Z,25.01
2018-04-18T10:54:31.958Z,24.98
2018-04-18T10:55:31.972Z,24.99
2018-04-18T10:56:31.964Z,24.96
2018-04-18T10:57:31.751Z,25.01
2018-04-18T10:58:32.269Z,25.01
2018-04-18T10:59:32.211Z,24.92
2018-04-18T11:00:31.973Z,24.85
2018-04-18T11:01:32.218Z,24.88
2018-04-18T11:02:32.220Z,24.8
2018-04-18T11:03:31.984Z,24.77
2018-04-18T11:04:31.979Z,24.8
2018-04-18T11:05:31.999Z,24.92
2018-04-18T11:06:32.284Z,24.85
2018-04-18T11:07:32.003Z,24.89
2018-04-18T11:08:31.997Z,24.92
2018-04-18T11:09:32.010Z,24.89
2018-04-18T11:10:32.005Z,24.92
2018-04-18T11:11:32.256Z,24.95
2018-04-18T11:12:32.015Z,24.86
2018-04-18T11:13:32.266Z,24.89
2018-04-18T11:14:32.282Z,24.91
2018-04-18T11:15:32.283Z,24.88
2018-04-18T11:16:32.279Z,24.96
2018-04-18T11:17:32.041Z,24.96
2018-04-18T11:18:32.046Z,25.04
2018-04-18T11:19:32.297Z,25.08
2018-04-18T11:20:32.089Z,25.06
2018-04-18T11:21:32.061Z,25.21
2018-04-18T11:22:34.159Z,25.18
2018-04-18T11:23:32.316Z,25.26
2018-04-18T11:24:32.069Z,25.26
2018-04-18T11:25:32.065Z,25.26
2018-04-18T11:26:32.322Z,25.32
2018-04-18T11:27:32.348Z,25.26
2018-04-18T11:28:32.642Z,25.08
2018-04-18T11:29:32.346Z,24.96
2018-04-18T11:30:32.094Z,24.88
2018-04-18T11:31:31.853Z,24.89
2018-04-18T11:32:32.352Z,24.89
2018-04-18T11:33:32.114Z,24.85
2018-04-18T11:34:32.112Z,24.8
2018-04-18T11:35:32.363Z,24.77
2018-04-18T11:36:32.444Z,24.78
2018-04-18T11:37:32.393Z,24.68
2018-04-18T11:38:32.398Z,24.7
2018-04-18T11:39:32.404Z,24.76
2018-04-18T11:40:32.141Z,24.76
2018-04-18T11:41:32.144Z,24.68
2018-04-18T11:42:32.404Z,24.73
2018-04-18T11:43:32.152Z,24.65
2018-04-18T11:44:32.185Z,24.69
2018-04-18T11:45:32.231Z,24.7
2018-04-18T11:46:32.173Z,24.8
2018-04-18T11:47:32.416Z,24.8
2018-04-18T11:48:32.173Z,24.98
2018-04-18T11:49:32.181Z,25.04
2018-04-18T11:50:32.440Z,25.17
2018-04-18T11:51:32.184Z,25.26
2018-04-18T11:52:32.449Z,25.31
2018-04-18T11:53:32.201Z,25.36
2018-04-18T11:54:32.204Z,25.23
2018-04-18T11:55:32.452Z,25.21
2018-04-18T11:56:32.208Z,25.23
2018-04-18T11:57:32.535Z,25.36
2018-04-18T11:58:32.231Z,25.4
2018-04-18T11:59:32.230Z,25.38
2018-04-18T12:00:32.480Z,25.35
2018-04-18T12:01:32.498Z,25.18
2018-04-18T12:02:32.251Z,25.31
2018-04-18T12:03:32.501Z,25.38
2018-04-18T12:04:32.509Z,25.28
2018-04-18T12:05:32.511Z,25.13
2018-04-18T12:06:32.511Z,25.08
2018-04-18T12:07:32.015Z,25.04
2018-04-18T12:08:32.311Z,25.1
2018-04-18T12:09:32.526Z,25.1
2018-04-18T12:10:32.283Z,25.07
2018-04-18T12:11:32.706Z,25.08
2018-04-18T12:12:32.535Z,24.93
2018-04-18T12:13:33.102Z,25.1
2018-04-18T12:14:32.566Z,25.07
2018-04-18T12:15:32.315Z,25.07
2018-04-18T12:16:32.311Z,25.13
2018-04-18T12:17:32.563Z,25.13
2018-04-18T12:18:32.319Z,25.21
2018-04-18T12:19:32.322Z,25.26
2018-04-18T12:20:32.570Z,25.28
2018-04-18T12:21:32.578Z,25.44
2018-04-18T12:22:32.583Z,25.55
2018-04-18T12:23:34.441Z,25.68
2018-04-18T12:24:32.338Z,25.62
2018-04-18T12:25:32.348Z,25.51
2018-04-18T12:26:32.098Z,25.6
2018-04-18T12:27:32.356Z,25.48
2018-04-18T12:28:32.366Z,25.5
2018-04-18T12:29:32.624Z,25.59
2018-04-18T12:30:32.375Z,25.54
2018-04-18T12:31:32.634Z,25.6
2018-04-18T12:32:32.384Z,25.62
2018-04-18T12:33:32.631Z,25.53
2018-04-18T12:34:32.641Z,25.47
2018-04-18T12:35:32.648Z,25.41
2018-04-18T12:36:32.158Z,25.44
2018-04-18T12:37:32.403Z,25.43
2018-04-18T12:38:32.407Z,25.48
2018-04-18T12:39:32.668Z,25.43
2018-04-18T12:40:32.167Z,25.38
2018-04-18T12:41:32.668Z,25.38
2018-04-18T12:42:32.426Z,25.26
2018-04-18T12:43:32.427Z,25.33
2018-04-18T12:44:32.439Z,25.44
2018-04-18T12:45:32.686Z,25.48
2018-04-18T12:46:32.453Z,25.36
2018-04-18T12:47:32.198Z,25.44
2018-04-18T12:48:32.707Z,25.48
2018-04-18T12:49:32.709Z,25.55
2018-04-18T12:50:32.715Z,25.63
2018-04-18T12:51:32.718Z,25.68
2018-04-18T12:52:32.912Z,25.73
2018-04-18T12:53:33.532Z,25.68
2018-04-18T12:54:32.733Z,25.81
2018-04-18T12:55:32.737Z,25.88
2018-04-18T12:56:32.490Z,25.85
2018-04-18T12:57:32.919Z,25.84
2018-04-18T12:58:32.493Z,25.85
2018-04-18T12:59:32.773Z,25.68
2018-04-18T13:00:32.508Z,25.58
2018-04-18T13:01:32.780Z,25.5
2018-04-18T13:02:32.773Z,25.41
2018-04-18T13:03:32.272Z,25.41
2018-04-18T13:04:32.780Z,25.47
2018-04-18T13:05:32.782Z,25.38
2018-04-18T13:06:32.596Z,25.29
2018-04-18T13:07:32.537Z,25.33
2018-04-18T13:08:32.795Z,25.36
2018-04-18T13:09:32.563Z,25.35
2018-04-18T13:10:32.560Z,25.48
2018-04-18T13:11:32.813Z,25.62
2018-04-18T13:12:32.574Z,25.63
2018-04-18T13:13:32.836Z,25.62
2018-04-18T13:14:32.828Z,25.77
2018-04-18T13:15:32.577Z,25.83
2018-04-18T13:16:32.840Z,25.75
2018-04-18T13:17:32.591Z,25.83
2018-04-18T13:18:32.848Z,25.68
2018-04-18T13:19:32.600Z,25.63
2018-04-18T13:20:32.600Z,25.59
2018-04-18T13:21:32.612Z,25.62
2018-04-18T13:22:32.884Z,25.53
2018-04-18T13:23:32.366Z,25.6
2018-04-18T13:24:32.877Z,25.53
2018-04-18T13:25:32.950Z,25.59
2018-04-18T13:26:32.881Z,25.63
2018-04-18T13:27:32.647Z,25.65
2018-04-18T13:28:32.939Z,25.66
2018-04-18T13:29:32.898Z,25.68
2018-04-18T13:30:32.904Z,25.7
2018-04-18T13:31:32.408Z,25.7
2018-04-18T13:32:32.407Z,25.72
2018-04-18T13:33:32.417Z,25.78
2018-04-18T13:34:32.671Z,25.77
2018-04-18T13:35:32.926Z,25.8
2018-04-18T13:36:32.927Z,25.69
2018-04-18T13:37:32.941Z,25.69
2018-04-18T13:38:32.932Z,25.66
2018-04-18T13:39:32.958Z,25.63
2018-04-18T13:40:32.724Z,25.66
2018-04-18T13:41:33.013Z,25.65
2018-04-18T13:42:32.957Z,25.63